createdAt,value
2018-04-13T00:01:21.782Z,4.10
2018-04-13T00:04:24.237Z,3.70
2018-04-13T00:07:26.681Z,4.03
2018-04-13T00:10:29.127Z,4.53
2018-04-13T00:13:32.357Z,4.43
2018-04-13T00:16:34.812Z,5.20
2018-04-13T00:19:37.249Z,5.00
2018-04-13T00:22:41.209Z,4.93
2018-04-13T00:25:43.654Z,4.70
2018-04-13T00:28:46.869Z,5.00
2018-04-13T00:31:49.319Z,4.80
2018-04-13T00:34:51.757Z,4.40
2018-04-13T00:37:54.209Z,4.50
2018-04-13T00:40:56.652Z,4.13
2018-04-13T00:43:59.097Z,4.40
2018-04-13T00:47:01.550Z,4.37
2018-04-13T00:50:03.997Z,5.20
2018-04-13T00:53:19.239Z,4.90
2018-04-13T00:56:21.677Z,5.00
2018-04-13T00:59:24.129Z,4.23
2018-04-13T01:02:26.577Z,4.40
2018-04-13T01:05:29.018Z,3.90
2018-04-13T01:08:31.470Z,4.33
2018-04-13T01:11:33.917Z,4.07
2018-04-13T01:14:37.132Z,4.03
2018-04-13T01:17:39.581Z,4.03
2018-04-13T01:20:42.036Z,3.93
2018-04-13T01:23:44.486Z,3.73
2018-04-13T01:26:46.935Z,4.17
2018-04-13T01:29:50.149Z,4.10
2018-04-13T01:32:52.597Z,4.10
2018-04-13T01:35:55.811Z,4.33
2018-04-13T01:38:58.288Z,4.20
2018-04-13T01:42:00.745Z,4.40
2018-04-13T01:45:03.949Z,4.20
2018-04-13T01:48:06.399Z,4.93
2018-04-13T01:51:08.837Z,4.70
2018-04-13T01:54:11.289Z,4.90
2018-04-13T01:57:13.737Z,4.97
2018-04-13T02:00:16.945Z,4.50
2018-04-13T02:03:20.157Z,4.50
2018-04-13T02:06:22.598Z,5.30
2018-04-13T02:09:25.126Z,5.27
2018-04-13T02:12:27.506Z,5.07
2018-04-13T02:15:29.949Z,4.97
2018-04-13T02:18:32.397Z,5.47
2018-04-13T02:21:34.841Z,5.80
2018-04-13T02:24:37.294Z,7.30
2018-04-13T02:27:39.742Z,6.90
2018-04-13T02:30:42.963Z,7.40
2018-04-13T02:33:45.405Z,7.37
2018-04-13T02:36:47.853Z,8.07
2018-04-13T02:39:50.303Z,6.77
2018-04-13T02:42:52.758Z,7.40
2018-04-13T02:45:55.199Z,6.87
2018-04-13T02:48:57.657Z,7.33
2018-04-13T02:52:00.093Z,7.40
2018-04-13T02:55:02.549Z,9.80
2018-04-13T02:58:05.009Z,9.43
2018-04-13T03:01:07.454Z,9.47
2018-04-13T03:04:09.914Z,10.00
2018-04-13T03:07:12.359Z,9.97
2018-04-13T03:10:14.809Z,10.90
2018-04-13T03:13:17.271Z,10.03
2018-04-13T03:16:19.715Z,9.63
2018-04-13T03:19:22.174Z,10.97
2018-04-13T03:22:24.617Z,10.93
2018-04-13T03:25:27.841Z,10.10
2018-04-13T03:28:30.305Z,11.40
2018-04-13T03:31:33.517Z,9.53
2018-04-13T03:34:35.973Z,9.90
2018-04-13T03:37:39.191Z,8.67
2018-04-13T03:40:41.630Z,7.43
2018-04-13T03:43:44.077Z,7.50
2018-04-13T03:46:46.525Z,8.87
2018-04-13T03:49:48.986Z,6.80
2018-04-13T03:52:51.433Z,7.17
2018-04-13T03:55:53.873Z,7.10
2018-04-13T03:58:56.325Z,7.07
2018-04-13T04:01:58.769Z,7.77
2018-04-13T04:05:01.222Z,8.70
2018-04-13T04:08:03.902Z,10.50
2018-04-13T04:11:06.349Z,12.73
2018-04-13T04:14:08.811Z,16.87
2018-04-13T04:17:11.254Z,19.67
2018-04-13T04:20:25.526Z,17.97
2018-04-13T04:23:40.765Z,10.70
2018-04-13T04:26:44.041Z,9.93
2018-04-13T04:29:46.494Z,9.73
2018-04-13T04:32:48.945Z,10.33
2018-04-13T04:35:52.175Z,11.57
2018-04-13T04:38:54.637Z,10.87
2018-04-13T04:41:57.081Z,11.10
2018-04-13T04:45:00.329Z,10.43
2018-04-13T04:48:02.789Z,10.97
2018-04-13T04:51:05.237Z,10.93
2018-04-13T04:54:08.461Z,11.20
2018-04-13T04:57:10.920Z,12.23
2018-04-13T05:00:14.146Z,12.37
2018-04-13T05:03:16.590Z,11.90
2018-04-13T05:06:19.824Z,12.93
2018-04-13T05:09:22.277Z,13.20
2018-04-13T05:12:24.738Z,14.00
2018-04-13T05:15:27.973Z,13.27
2018-04-13T05:18:30.425Z,13.07
2018-04-13T05:21:32.873Z,13.80
2018-04-13T05:24:36.102Z,14.03
2018-04-13T05:27:39.080Z,15.67
2018-04-13T05:30:41.541Z,14.60
2018-04-13T05:33:44.757Z,15.70
2018-04-13T05:36:47.205Z,15.07
2018-04-13T05:39:50.431Z,16.57
2018-04-13T05:42:52.872Z,15.57
2018-04-13T05:45:55.330Z,17.73
2018-04-13T05:48:57.781Z,16.90
2018-04-13T05:52:02.154Z,20.77
2018-04-13T05:55:05.378Z,20.03
2018-04-13T05:58:07.825Z,19.30
2018-04-13T06:01:11.054Z,19.73
2018-04-13T06:04:13.521Z,21.13
2018-04-13T06:07:15.977Z,20.37
2018-04-13T06:10:19.201Z,21.83
2018-04-13T06:13:21.650Z,21.17
2018-04-13T06:16:24.889Z,23.43
2018-04-13T06:19:27.347Z,23.10
2018-04-13T06:22:29.789Z,22.70
2018-04-13T06:25:33.021Z,24.73
2018-04-13T06:28:35.468Z,23.33
2018-04-13T06:31:37.926Z,23.97
2018-04-13T06:34:40.386Z,25.27
2018-04-13T06:37:42.833Z,24.10
2018-04-13T06:40:45.291Z,25.13
2018-04-13T06:43:47.741Z,25.87
2018-04-13T06:46:50.962Z,24.30
2018-04-13T06:49:53.421Z,24.67
2018-04-13T06:52:56.633Z,25.87
2018-04-13T06:55:59.090Z,25.33
2018-04-13T06:59:02.334Z,25.57
2018-04-13T07:02:04.789Z,25.07
2018-04-13T07:05:07.250Z,24.60
2018-04-13T07:08:09.698Z,26.47
2018-04-13T07:11:12.153Z,25.33
2018-04-13T07:14:14.614Z,26.70
2018-04-13T07:17:17.071Z,27.33
2018-04-13T07:20:19.521Z,28.03
2018-04-13T07:23:22.738Z,28.17
2018-04-13T07:26:25.201Z,25.97
2018-04-13T07:29:28.438Z,26.70
2018-04-13T07:32:30.888Z,26.07
2018-04-13T07:35:33.343Z,25.97
2018-04-13T07:38:36.554Z,24.33
2018-04-13T07:45:14.393Z,23.43
2018-04-13T07:48:17.376Z,23.90
2018-04-13T07:51:19.412Z,23.67
2018-04-13T07:54:21.769Z,25.23
2018-04-13T07:57:24.986Z,24.10
2018-04-13T08:00:27.453Z,22.53
2018-04-13T08:03:29.905Z,22.30
2018-04-13T08:06:33.132Z,22.90
2018-04-13T08:09:35.585Z,22.77
2018-04-13T08:12:38.800Z,23.17
2018-04-13T08:15:41.257Z,22.40
2018-04-13T08:18:44.469Z,23.63
2018-04-13T08:25:15.626Z,25.47
2018-04-13T08:28:18.314Z,24.07
2018-04-13T08:31:20.998Z,24.20
2018-04-13T08:34:33.845Z,33.10
2018-04-13T08:37:36.297Z,31.53
2018-04-13T08:40:38.767Z,27.23
2018-04-13T08:43:41.272Z,27.93
2018-04-13T08:46:43.669Z,30.90
2018-04-13T08:49:46.116Z,30.17
2018-04-13T08:52:48.586Z,32.37
2018-04-13T08:55:51.037Z,33.10
2018-04-13T08:58:54.259Z,35.23
2018-04-13T09:02:10.903Z,34.13
2018-04-13T09:05:14.134Z,36.17
2018-04-13T09:08:17.358Z,36.60
2018-04-13T09:11:19.815Z,40.90
2018-04-13T09:14:22.263Z,40.23
2018-04-13T09:17:24.717Z,41.17
2018-04-13T09:20:27.161Z,40.57
2018-04-13T09:23:29.625Z,39.60
2018-04-13T09:26:32.082Z,41.23
2018-04-13T09:29:35.302Z,37.83
2018-04-13T09:32:37.757Z,37.90
2018-04-13T09:35:40.995Z,38.63
2018-04-13T09:38:43.477Z,36.53
2018-04-13T09:41:45.935Z,34.87
2018-04-13T09:44:48.386Z,35.60
2018-04-13T09:47:50.837Z,34.67
2018-04-13T09:50:53.285Z,36.27
2018-04-13T09:53:55.750Z,34.10
2018-04-13T09:56:58.207Z,33.13
2018-04-13T10:00:00.654Z,32.80
2018-04-13T10:03:03.881Z,34.00
2018-04-13T10:06:06.329Z,31.67
2018-04-13T10:09:09.557Z,32.83
2018-04-13T10:12:12.024Z,33.50
2018-04-13T10:15:14.465Z,30.90
2018-04-13T10:18:16.918Z,32.93
2018-04-13T10:21:19.377Z,33.87
2018-04-13T10:24:21.830Z,37.80
2018-04-13T10:27:25.155Z,36.30
2018-04-13T10:30:27.607Z,34.07
2018-04-13T10:33:43.093Z,33.80
2018-04-13T10:36:45.537Z,34.40
2018-04-13T10:39:47.993Z,34.53
2018-04-13T10:42:50.458Z,34.57
2018-04-13T10:45:52.918Z,33.33
2018-04-13T10:48:55.385Z,32.77
2018-04-13T10:51:57.825Z,34.33
2018-04-13T10:55:01.061Z,31.17
2018-04-13T10:58:03.517Z,31.50
2018-04-13T11:01:06.092Z,32.47
2018-04-13T11:04:08.553Z,33.07
2018-04-13T11:07:11.773Z,32.77
2018-04-13T11:10:14.232Z,29.20
2018-04-13T11:13:16.689Z,31.77
2018-04-13T11:16:19.909Z,31.10
2018-04-13T11:19:22.369Z,32.63
2018-04-13T11:22:25.578Z,32.57
2018-04-13T11:25:28.029Z,30.67
2018-04-13T11:28:31.255Z,31.73
2018-04-13T11:31:33.709Z,33.27
2018-04-13T11:34:36.925Z,35.47
2018-04-13T11:37:39.376Z,35.07
2018-04-13T11:40:42.594Z,36.47
2018-04-13T11:43:45.068Z,35.07
2018-04-13T11:46:47.529Z,32.83
2018-04-13T11:49:50.765Z,32.53
2018-04-13T11:52:53.225Z,30.83
2018-04-13T11:55:55.683Z,33.47
2018-04-13T11:58:58.905Z,32.17
2018-04-13T12:02:01.350Z,27.90
2018-04-13T12:05:04.574Z,24.20
2018-04-13T12:08:07.022Z,29.07
2018-04-13T12:11:10.246Z,23.83
2018-04-13T12:14:12.714Z,22.23
2018-04-13T12:17:15.169Z,22.20
2018-04-13T12:20:17.627Z,22.23
2018-04-13T12:23:20.078Z,38.57
2018-04-13T12:26:22.534Z,30.10
2018-04-13T12:29:24.998Z,21.37
2018-04-13T12:32:27.446Z,21.87
2018-04-13T12:35:29.909Z,21.00
2018-04-13T12:38:32.356Z,20.33
2018-04-13T12:41:34.810Z,21.30
2018-04-13T12:44:37.270Z,23.30
2018-04-13T12:47:39.714Z,40.63
2018-04-13T12:50:42.463Z,19.97
2018-04-13T12:53:44.954Z,17.93
2018-04-13T12:56:47.400Z,16.77
2018-04-13T12:59:49.848Z,17.83
2018-04-13T13:02:53.066Z,18.97
2018-04-13T13:05:55.534Z,19.23
2018-04-13T13:08:57.993Z,17.63
2018-04-13T13:12:01.210Z,16.53
2018-04-13T13:15:03.661Z,17.33
2018-04-13T13:18:06.877Z,17.23
2018-04-13T13:21:09.355Z,16.00
2018-04-13T13:24:11.797Z,45.87
2018-04-13T13:27:14.257Z,43.50
2018-04-13T13:30:16.713Z,19.43
2018-04-13T13:33:19.175Z,13.27
2018-04-13T13:36:21.626Z,13.30
2018-04-13T13:39:24.081Z,12.60
2018-04-13T13:42:26.542Z,11.87
2018-04-13T13:45:28.990Z,11.03
2018-04-13T13:48:31.449Z,11.30
2018-04-13T13:51:33.906Z,10.53
2018-04-13T13:54:37.122Z,10.77
2018-04-13T13:57:39.576Z,25.03
2018-04-13T14:00:42.018Z,29.00
2018-04-13T14:03:44.474Z,9.67
2018-04-13T14:06:46.930Z,10.20
2018-04-13T14:09:49.369Z,8.53
2018-04-13T14:12:52.593Z,8.00
2018-04-13T14:15:55.036Z,8.57
2018-04-13T14:18:57.494Z,10.20
2018-04-13T14:21:59.954Z,8.57
2018-04-13T14:25:02.398Z,8.90
2018-04-13T14:28:04.887Z,9.40
2018-04-13T14:31:07.319Z,9.47
2018-04-13T14:34:09.774Z,9.63
2018-04-13T14:37:12.226Z,10.13
2018-04-13T14:40:14.673Z,10.47
2018-04-13T14:43:17.132Z,10.43
2018-04-13T14:46:20.352Z,10.90
2018-04-13T14:49:22.806Z,14.27
2018-04-13T14:52:26.034Z,14.33
2018-04-13T14:55:28.497Z,17.47
2018-04-13T14:58:30.945Z,25.33
2018-04-13T15:01:33.406Z,29.10
2018-04-13T15:04:35.861Z,31.97
2018-04-13T15:07:38.321Z,29.90
2018-04-13T15:10:40.767Z,28.63
2018-04-13T15:13:44.019Z,29.97
2018-04-13T15:16:46.474Z,30.07
2018-04-13T15:19:48.907Z,29.37
2018-04-13T15:22:52.134Z,27.20
2018-04-13T15:25:54.594Z,29.53
2018-04-13T15:28:57.037Z,27.40
2018-04-13T15:31:59.502Z,32.07
2018-04-13T15:35:01.944Z,30.50
2018-04-13T15:38:04.405Z,28.70
2018-04-13T15:41:12.067Z,29.43
2018-04-13T15:44:14.521Z,30.20
2018-04-13T15:47:16.982Z,29.97
2018-04-13T15:50:19.435Z,30.33
2018-04-13T15:53:21.885Z,28.43
2018-04-13T15:56:25.106Z,27.87
2018-04-13T15:59:27.565Z,28.97
2018-04-13T16:02:30.785Z,27.77
2018-04-13T16:05:33.233Z,28.57
2018-04-13T16:08:36.454Z,27.20
2018-04-13T16:11:38.907Z,27.80
2018-04-13T16:14:42.134Z,24.50
2018-04-13T16:17:44.598Z,23.80
2018-04-13T16:20:47.041Z,22.93
2018-04-13T16:23:50.265Z,22.70
2018-04-13T16:26:53.933Z,20.80
2018-04-13T16:29:57.281Z,20.07
2018-04-13T16:32:59.743Z,19.30
2018-04-13T16:36:02.190Z,19.47
2018-04-13T16:39:04.677Z,18.27
2018-04-13T16:42:07.094Z,17.53
2018-04-13T16:45:09.554Z,18.23
2018-04-13T16:48:12.009Z,17.47
2018-04-13T16:51:15.230Z,16.87
2018-04-13T16:54:17.685Z,16.63
2018-04-13T16:57:20.142Z,16.03
2018-04-13T17:00:22.591Z,14.67
2018-04-13T17:03:25.054Z,16.07
2018-04-13T17:06:27.501Z,14.27
2018-04-13T17:09:29.966Z,13.60
2018-04-13T17:12:33.182Z,14.10
2018-04-13T17:15:35.629Z,14.77
2018-04-13T17:18:38.853Z,14.57
2018-04-13T17:21:41.301Z,14.27
2018-04-13T17:24:44.521Z,15.27
2018-04-13T17:27:46.977Z,15.63
2018-04-13T17:30:49.426Z,14.77
2018-04-13T17:33:51.881Z,17.40
2018-04-13T17:36:54.329Z,15.87
2018-04-13T17:39:56.797Z,15.77
2018-04-13T17:42:59.254Z,15.43
2018-04-13T17:46:02.470Z,15.20
2018-04-13T17:49:04.921Z,15.10
2018-04-13T17:52:08.141Z,14.97
2018-04-13T17:55:10.589Z,15.07
2018-04-13T17:58:13.821Z,14.13
2018-04-13T18:01:16.280Z,14.57
2018-04-13T18:04:19.489Z,13.73
2018-04-13T18:07:21.933Z,12.80
2018-04-13T18:10:25.153Z,13.83
2018-04-13T18:13:27.613Z,12.13
2018-04-13T18:16:30.822Z,12.53
2018-04-13T18:19:33.281Z,11.27
2018-04-13T18:22:36.497Z,12.30
2018-04-13T18:25:38.958Z,10.13
2018-04-13T18:28:41.409Z,10.40
2018-04-13T18:31:43.854Z,9.53
2018-04-13T18:34:46.356Z,10.27
2018-04-13T18:37:48.790Z,10.30
2018-04-13T18:40:51.249Z,10.10
2018-04-13T18:43:53.701Z,9.73
2018-04-13T18:46:56.138Z,9.73
2018-04-13T18:49:58.589Z,9.93
2018-04-13T18:53:01.037Z,9.80
2018-04-13T18:56:04.253Z,10.13
2018-04-13T18:59:06.714Z,9.43
2018-04-13T19:02:09.929Z,10.77
2018-04-13T19:05:12.386Z,12.10
2018-04-13T19:08:15.609Z,13.30
2018-04-13T19:11:18.053Z,13.27
2018-04-13T19:14:21.277Z,13.57
2018-04-13T19:17:23.728Z,12.87
2018-04-13T19:20:26.954Z,15.13
2018-04-13T19:23:29.405Z,18.30
2018-04-13T19:26:31.854Z,21.23
2018-04-13T19:29:35.078Z,22.40
2018-04-13T19:32:37.531Z,23.90
2018-04-13T19:35:40.762Z,26.27
2018-04-13T19:38:43.226Z,27.23
2018-04-13T19:41:46.422Z,30.07
2018-04-13T19:44:48.873Z,28.93
2018-04-13T19:47:52.091Z,32.10
2018-04-13T19:50:54.562Z,32.53
2018-04-13T19:53:57.778Z,34.13
2018-04-13T19:57:00.230Z,32.87
2018-04-13T20:00:03.462Z,33.23
2018-04-13T20:03:05.914Z,33.83
2018-04-13T20:06:08.374Z,36.60
2018-04-13T20:09:11.643Z,37.73
2018-04-13T20:12:14.050Z,38.83
2018-04-13T20:15:27.337Z,40.30
2018-04-13T20:18:29.798Z,45.17
2018-04-13T20:21:32.246Z,45.00
2018-04-13T20:24:34.711Z,45.13
2018-04-13T20:27:37.158Z,45.83
2018-04-13T20:30:39.616Z,45.53
2018-04-13T20:33:42.073Z,45.80
2018-04-13T20:36:44.529Z,48.87
2018-04-13T20:39:46.981Z,48.10
2018-04-13T20:42:50.197Z,48.67
2018-04-13T20:45:52.652Z,48.37
2018-04-13T20:48:55.874Z,53.07
2018-04-13T20:51:58.321Z,57.33
2018-04-13T20:55:00.785Z,48.70
2018-04-13T20:58:03.238Z,51.27
2018-04-13T21:01:05.693Z,49.47
2018-04-13T21:04:08.154Z,51.33
2018-04-13T21:07:10.595Z,49.93
2018-04-13T21:10:13.821Z,50.60
2018-04-13T21:13:16.258Z,55.77
2018-04-13T21:16:18.719Z,52.63
2018-04-13T21:19:21.175Z,50.80
2018-04-13T21:22:23.616Z,51.23
2018-04-13T21:25:26.078Z,52.37
2018-04-13T21:28:29.293Z,53.30
2018-04-13T21:31:31.741Z,53.07
2018-04-13T21:34:34.202Z,54.10
2018-04-13T21:37:36.650Z,53.47
2018-04-13T21:40:39.110Z,54.07
2018-04-13T21:43:41.558Z,56.80
2018-04-13T21:46:44.786Z,55.57
2018-04-13T21:49:47.241Z,55.60
2018-04-13T21:52:49.684Z,59.20
2018-04-13T21:55:52.155Z,59.63
2018-04-13T21:58:54.605Z,56.03
2018-04-13T22:01:57.061Z,54.97
2018-04-13T22:04:59.522Z,55.60
2018-04-13T22:08:02.740Z,56.30
2018-04-13T22:11:05.339Z,56.47
2018-04-13T22:14:19.678Z,60.70
2018-04-13T22:17:22.073Z,59.07
2018-04-13T22:20:24.533Z,65.00
2018-04-13T22:23:26.986Z,65.27
2018-04-13T22:26:29.437Z,63.57
2018-04-13T22:29:32.676Z,67.33
2018-04-13T22:32:35.125Z,66.53
2018-04-13T22:35:38.351Z,67.30
2018-04-13T22:38:40.803Z,68.97
2018-04-13T22:41:43.266Z,68.20
2018-04-13T22:44:46.489Z,64.93
2018-04-13T22:47:48.945Z,64.50
2018-04-13T22:50:51.409Z,59.77
2018-04-13T22:53:54.623Z,58.20
2018-04-13T22:56:57.083Z,56.40
2018-04-13T23:00:00.306Z,57.13
2018-04-13T23:03:02.753Z,55.73
2018-04-13T23:06:05.977Z,52.53
2018-04-13T23:09:08.433Z,45.70
2018-04-13T23:12:10.895Z,42.87
2018-04-13T23:15:13.402Z,43.10
2018-04-13T23:18:15.807Z,43.33
2018-04-13T23:21:18.254Z,42.13
2018-04-13T23:24:20.705Z,42.03
2018-04-13T23:27:23.937Z,39.73
2018-04-13T23:30:26.389Z,38.37
2018-04-13T23:33:29.597Z,39.57
2018-04-13T23:36:32.054Z,41.57
2018-04-13T23:39:35.277Z,38.00
2018-04-13T23:42:37.737Z,36.87
2018-04-13T23:45:40.198Z,36.80
2018-04-13T23:48:43.417Z,35.67
2018-04-13T23:51:45.873Z,35.60
2018-04-13T23:54:49.094Z,35.90
2018-04-13T23:57:51.542Z,36.30
